sensor_id;sensor_type;location;lat;lon;timestamp;P1;durP1;ratioP1;P2;durP2;ratioP2
65996;SDS011;52765;52.258;21.052;2022-07-06T00:02:12;7.35;;;5.47;;
65996;SDS011;52765;52.258;21.052;2022-07-06T00:04:38;7.15;;;5.63;;
65996;SDS011;52765;52.258;21.052;2022-07-06T00:07:04;7.40;;;5.97;;
65996;SDS011;52765;52.258;21.052;2022-07-06T00:09:29;7.90;;;6.07;;
65996;SDS011;52765;52.258;21.052;2022-07-06T00:11:55;9.75;;;6.38;;
65996;SDS011;52765;52.258;21.052;2022-07-06T00:14:22;6.68;;;5.93;;
65996;SDS011;52765;52.258;21.052;2022-07-06T00:16:48;8.10;;;6.25;;
65996;SDS011;52765;52.258;21.052;2022-07-06T00:19:13;8.35;;;6.68;;
65996;SDS011;52765;52.258;21.052;2022-07-06T00:21:39;8.07;;;6.32;;
65996;SDS011;52765;52.258;21.052;2022-07-06T00:24:05;8.68;;;6.97;;
65996;SDS011;52765;52.258;21.052;2022-07-06T00:26:30;9.88;;;7.88;;
65996;SDS011;52765;52.258;21.052;2022-07-06T00:28:56;7.97;;;6.47;;
65996;SDS011;52765;52.258;21.052;2022-07-06T00:31:22;9.98;;;6.45;;
65996;SDS011;52765;52.258;21.052;2022-07-06T00:33:48;7.43;;;6.43;;
65996;SDS011;52765;52.258;21.052;2022-07-06T00:36:14;8.38;;;6.35;;
65996;SDS011;52765;52.258;21.052;2022-07-06T00:38:40;9.27;;;6.00;;
65996;SDS011;52765;52.258;21.052;2022-07-06T00:41:06;6.82;;;5.47;;
65996;SDS011;52765;52.258;21.052;2022-07-06T00:43:51;10.23;;;5.50;;
65996;SDS011;52765;52.258;21.052;2022-07-06T00:46:26;7.05;;;5.15;;
65996;SDS011;52765;52.258;21.052;2022-07-06T00:48:54;9.68;;;5.78;;
65996;SDS011;52765;52.258;21.052;2022-07-06T00:51:22;9.93;;;6.05;;
65996;SDS011;52765;52.258;21.052;2022-07-06T00:53:50;6.95;;;4.80;;
65996;SDS011;52765;52.258;21.052;2022-07-06T00:56:17;6.90;;;5.03;;
65996;SDS011;52765;52.258;21.052;2022-07-06T00:58:43;8.98;;;5.20;;
65996;SDS011;52765;52.258;21.052;2022-07-06T01:01:10;7.93;;;4.80;;
65996;SDS011;52765;52.258;21.052;2022-07-06T01:03:35;6.38;;;5.15;;
65996;SDS011;52765;52.258;21.052;2022-07-06T01:06:02;6.75;;;4.85;;
65996;SDS011;52765;52.258;21.052;2022-07-06T01:08:29;5.78;;;4.68;;
65996;SDS011;52765;52.258;21.052;2022-07-06T01:10:55;6.50;;;4.78;;
65996;SDS011;52765;52.258;21.052;2022-07-06T01:13:20;7.00;;;4.93;;
65996;SDS011;52765;52.258;21.052;2022-07-06T01:15:46;8.98;;;5.57;;
65996;SDS011;52765;52.258;21.052;2022-07-06T01:18:11;7.28;;;4.47;;
65996;SDS011;52765;52.258;21.052;2022-07-06T01:20:37;5.95;;;4.63;;
65996;SDS011;52765;52.258;21.052;2022-07-06T01:23:03;5.18;;;4.40;;
65996;SDS011;52765;52.258;21.052;2022-07-06T01:25:28;6.75;;;4.63;;
65996;SDS011;52765;52.258;21.052;2022-07-06T01:27:54;4.90;;;4.40;;
65996;SDS011;52765;52.258;21.052;2022-07-06T01:30:20;6.25;;;4.55;;
65996;SDS011;52765;52.258;21.052;2022-07-06T01:32:48;8.38;;;4.88;;
65996;SDS011;52765;52.258;21.052;2022-07-06T01:35:17;6.63;;;4.38;;
65996;SDS011;52765;52.258;21.052;2022-07-06T01:37:44;6.75;;;4.28;;
65996;SDS011;52765;52.258;21.052;2022-07-06T01:40:10;7.45;;;4.63;;
65996;SDS011;52765;52.258;21.052;2022-07-06T01:42:37;6.95;;;4.88;;
65996;SDS011;52765;52.258;21.052;2022-07-06T01:45:04;6.82;;;4.15;;
65996;SDS011;52765;52.258;21.052;2022-07-06T01:47:31;5.85;;;4.30;;
65996;SDS011;52765;52.258;21.052;2022-07-06T01:49:58;6.30;;;4.20;;
65996;SDS011;52765;52.258;21.052;2022-07-06T01:52:25;4.75;;;4.20;;
65996;SDS011;52765;52.258;21.052;2022-07-06T01:54:51;5.10;;;4.45;;
65996;SDS011;52765;52.258;21.052;2022-07-06T01:57:16;6.72;;;5.18;;
65996;SDS011;52765;52.258;21.052;2022-07-06T01:59:41;6.97;;;4.88;;
65996;SDS011;52765;52.258;21.052;2022-07-06T02:02:07;8.32;;;5.60;;
65996;SDS011;52765;52.258;21.052;2022-07-06T02:04:32;8.30;;;5.47;;
65996;SDS011;52765;52.258;21.052;2022-07-06T02:06:58;11.30;;;5.45;;
65996;SDS011;52765;52.258;21.052;2022-07-06T02:09:24;8.20;;;5.47;;
65996;SDS011;52765;52.258;21.052;2022-07-06T02:11:49;6.93;;;5.25;;
65996;SDS011;52765;52.258;21.052;2022-07-06T02:14:15;7.53;;;5.32;;
65996;SDS011;52765;52.258;21.052;2022-07-06T02:16:40;5.25;;;4.32;;
65996;SDS011;52765;52.258;21.052;2022-07-06T02:19:06;6.88;;;4.70;;
65996;SDS011;52765;52.258;21.052;2022-07-06T02:21:31;6.03;;;4.63;;
65996;SDS011;52765;52.258;21.052;2022-07-06T02:23:57;7.38;;;4.47;;
65996;SDS011;52765;52.258;21.052;2022-07-06T02:26:22;5.13;;;4.63;;
65996;SDS011;52765;52.258;21.052;2022-07-06T02:28:48;8.27;;;5.00;;
65996;SDS011;52765;52.258;21.052;2022-07-06T02:31:14;5.68;;;4.20;;
65996;SDS011;52765;52.258;21.052;2022-07-06T02:33:40;5.43;;;4.70;;
65996;SDS011;52765;52.258;21.052;2022-07-06T02:36:05;4.90;;;4.22;;
65996;SDS011;52765;52.258;21.052;2022-07-06T02:38:31;6.68;;;4.32;;
65996;SDS011;52765;52.258;21.052;2022-07-06T02:40:57;7.60;;;4.35;;
65996;SDS011;52765;52.258;21.052;2022-07-06T02:43:22;6.00;;;4.63;;
65996;SDS011;52765;52.258;21.052;2022-07-06T02:45:48;5.28;;;4.70;;
65996;SDS011;52765;52.258;21.052;2022-07-06T02:48:13;4.70;;;4.20;;
65996;SDS011;52765;52.258;21.052;2022-07-06T02:50:39;5.75;;;4.60;;
65996;SDS011;52765;52.258;21.052;2022-07-06T02:53:04;5.47;;;4.80;;
65996;SDS011;52765;52.258;21.052;2022-07-06T02:55:30;6.18;;;4.85;;
65996;SDS011;52765;52.258;21.052;2022-07-06T02:57:55;7.00;;;5.00;;
65996;SDS011;52765;52.258;21.052;2022-07-06T03:00:21;7.20;;;4.10;;
65996;SDS011;52765;52.258;21.052;2022-07-06T03:02:47;4.90;;;4.18;;
65996;SDS011;52765;52.258;21.052;2022-07-06T03:05:12;6.47;;;4.38;;
65996;SDS011;52765;52.258;21.052;2022-07-06T03:07:38;5.07;;;4.53;;
65996;SDS011;52765;52.258;21.052;2022-07-06T03:10:03;5.63;;;4.97;;
65996;SDS011;52765;52.258;21.052;2022-07-06T03:12:29;9.00;;;4.63;;
65996;SDS011;52765;52.258;21.052;2022-07-06T03:14:55;5.13;;;4.03;;
65996;SDS011;52765;52.258;21.052;2022-07-06T03:17:20;6.18;;;4.93;;
65996;SDS011;52765;52.258;21.052;2022-07-06T03:19:46;7.38;;;4.30;;
65996;SDS011;52765;52.258;21.052;2022-07-06T03:22:12;7.25;;;4.45;;
65996;SDS011;52765;52.258;21.052;2022-07-06T03:24:37;5.15;;;4.20;;
65996;SDS011;52765;52.258;21.052;2022-07-06T03:27:03;7.40;;;4.60;;
65996;SDS011;52765;52.258;21.052;2022-07-06T03:29:28;5.50;;;4.90;;
65996;SDS011;52765;52.258;21.052;2022-07-06T03:31:57;6.25;;;4.30;;
65996;SDS011;52765;52.258;21.052;2022-07-06T03:34:22;10.10;;;4.47;;
65996;SDS011;52765;52.258;21.052;2022-07-06T03:36:48;8.45;;;4.38;;
65996;SDS011;52765;52.258;21.052;2022-07-06T03:39:13;6.90;;;4.38;;
65996;SDS011;52765;52.258;21.052;2022-07-06T03:41:39;7.15;;;4.20;;
65996;SDS011;52765;52.258;21.052;2022-07-06T03:44:04;7.32;;;4.63;;
65996;SDS011;52765;52.258;21.052;2022-07-06T03:46:30;6.55;;;4.78;;
65996;SDS011;52765;52.258;21.052;2022-07-06T03:48:55;5.85;;;4.25;;
65996;SDS011;52765;52.258;21.052;2022-07-06T03:51:21;6.45;;;4.25;;
65996;SDS011;52765;52.258;21.052;2022-07-06T03:53:46;4.68;;;4.25;;
65996;SDS011;52765;52.258;21.052;2022-07-06T03:56:13;6.65;;;4.30;;
65996;SDS011;52765;52.258;21.052;2022-07-06T03:58:54;6.63;;;4.70;;
65996;SDS011;52765;52.258;21.052;2022-07-06T04:01:21;8.70;;;4.55;;
65996;SDS011;52765;52.258;21.052;2022-07-06T04:03:47;4.75;;;4.25;;
65996;SDS011;52765;52.258;21.052;2022-07-06T04:06:12;8.02;;;4.03;;
65996;SDS011;52765;52.258;21.052;2022-07-06T04:08:38;6.93;;;3.85;;
65996;SDS011;52765;52.258;21.052;2022-07-06T04:11:06;4.97;;;3.65;;
65996;SDS011;52765;52.258;21.052;2022-07-06T04:13:32;6.30;;;4.13;;
65996;SDS011;52765;52.258;21.052;2022-07-06T04:15:58;6.10;;;3.97;;
65996;SDS011;52765;52.258;21.052;2022-07-06T04:18:23;3.90;;;3.50;;
65996;SDS011;52765;52.258;21.052;2022-07-06T04:20:49;10.15;;;3.85;;
65996;SDS011;52765;52.258;21.052;2022-07-06T04:23:14;3.50;;;3.20;;
65996;SDS011;52765;52.258;21.052;2022-07-06T04:25:41;5.07;;;3.83;;
65996;SDS011;52765;52.258;21.052;2022-07-06T04:28:07;4.18;;;3.65;;
65996;SDS011;52765;52.258;21.052;2022-07-06T04:30:32;4.32;;;3.42;;
65996;SDS011;52765;52.258;21.052;2022-07-06T04:32:58;5.25;;;3.95;;
65996;SDS011;52765;52.258;21.052;2022-07-06T04:35:24;4.82;;;4.05;;
65996;SDS011;52765;52.258;21.052;2022-07-06T04:37:49;5.38;;;3.80;;
65996;SDS011;52765;52.258;21.052;2022-07-06T04:40:15;4.75;;;3.55;;
65996;SDS011;52765;52.258;21.052;2022-07-06T04:42:41;5.25;;;3.60;;
65996;SDS011;52765;52.258;21.052;2022-07-06T04:45:06;4.65;;;3.65;;
65996;SDS011;52765;52.258;21.052;2022-07-06T04:47:33;5.38;;;3.28;;
65996;SDS011;52765;52.258;21.052;2022-07-06T04:49:59;4.60;;;3.30;;
65996;SDS011;52765;52.258;21.052;2022-07-06T04:52:25;5.05;;;3.67;;
65996;SDS011;52765;52.258;21.052;2022-07-06T04:54:50;7.18;;;3.90;;
65996;SDS011;52765;52.258;21.052;2022-07-06T04:57:16;5.68;;;3.42;;
65996;SDS011;52765;52.258;21.052;2022-07-06T04:59:41;6.22;;;3.63;;
65996;SDS011;52765;52.258;21.052;2022-07-06T05:02:07;6.35;;;4.20;;
65996;SDS011;52765;52.258;21.052;2022-07-06T05:04:32;5.18;;;4.20;;
65996;SDS011;52765;52.258;21.052;2022-07-06T05:06:58;4.72;;;3.97;;
65996;SDS011;52765;52.258;21.052;2022-07-06T05:09:24;5.40;;;3.80;;
65996;SDS011;52765;52.258;21.052;2022-07-06T05:11:50;4.38;;;3.47;;
65996;SDS011;52765;52.258;21.052;2022-07-06T05:14:16;9.10;;;3.70;;
65996;SDS011;52765;52.258;21.052;2022-07-06T05:16:41;4.10;;;3.70;;
65996;SDS011;52765;52.258;21.052;2022-07-06T05:19:07;4.10;;;3.67;;
65996;SDS011;52765;52.258;21.052;2022-07-06T05:21:32;3.70;;;3.40;;
65996;SDS011;52765;52.258;21.052;2022-07-06T05:23:58;8.38;;;4.28;;
65996;SDS011;52765;52.258;21.052;2022-07-06T05:26:23;5.80;;;3.83;;
65996;SDS011;52765;52.258;21.052;2022-07-06T05:28:49;4.20;;;3.80;;
65996;SDS011;52765;52.258;21.052;2022-07-06T05:31:14;5.22;;;3.30;;
65996;SDS011;52765;52.258;21.052;2022-07-06T05:33:40;7.13;;;4.32;;
65996;SDS011;52765;52.258;21.052;2022-07-06T05:36:06;4.82;;;3.85;;
65996;SDS011;52765;52.258;21.052;2022-07-06T05:38:31;5.53;;;3.72;;
65996;SDS011;52765;52.258;21.052;2022-07-06T05:40:57;4.07;;;3.42;;
65996;SDS011;52765;52.258;21.052;2022-07-06T05:43:22;4.07;;;3.45;;
65996;SDS011;52765;52.258;21.052;2022-07-06T05:45:48;4.22;;;3.50;;
65996;SDS011;52765;52.258;21.052;2022-07-06T05:48:13;7.13;;;4.13;;
65996;SDS011;52765;52.258;21.052;2022-07-06T05:50:58;5.95;;;3.75;;
65996;SDS011;52765;52.258;21.052;2022-07-06T05:53:24;6.53;;;3.83;;
65996;SDS011;52765;52.258;21.052;2022-07-06T05:55:49;4.18;;;3.28;;
65996;SDS011;52765;52.258;21.052;2022-07-06T05:58:15;4.82;;;3.25;;
65996;SDS011;52765;52.258;21.052;2022-07-06T06:00:41;8.13;;;3.50;;
65996;SDS011;52765;52.258;21.052;2022-07-06T06:03:06;4.10;;;3.40;;
65996;SDS011;52765;52.258;21.052;2022-07-06T06:05:32;3.40;;;2.90;;
65996;SDS011;52765;52.258;21.052;2022-07-06T06:07:57;3.67;;;2.88;;
65996;SDS011;52765;52.258;21.052;2022-07-06T06:10:23;3.70;;;2.83;;
65996;SDS011;52765;52.258;21.052;2022-07-06T06:12:52;4.43;;;2.90;;
65996;SDS011;52765;52.258;21.052;2022-07-06T06:15:18;3.55;;;2.92;;
65996;SDS011;52765;52.258;21.052;2022-07-06T06:17:43;4.38;;;3.25;;
65996;SDS011;52765;52.258;21.052;2022-07-06T06:20:10;5.20;;;3.17;;
65996;SDS011;52765;52.258;21.052;2022-07-06T06:22:44;5.60;;;3.42;;
65996;SDS011;52765;52.258;21.052;2022-07-06T06:25:13;3.88;;;3.17;;
65996;SDS011;52765;52.258;21.052;2022-07-06T06:27:42;4.15;;;3.47;;
65996;SDS011;52765;52.258;21.052;2022-07-06T06:30:08;4.10;;;3.15;;
65996;SDS011;52765;52.258;21.052;2022-07-06T06:32:35;4.57;;;3.40;;
65996;SDS011;52765;52.258;21.052;2022-07-06T06:35:00;6.53;;;3.55;;
65996;SDS011;52765;52.258;21.052;2022-07-06T06:37:26;3.45;;;3.15;;
65996;SDS011;52765;52.258;21.052;2022-07-06T06:39:51;3.58;;;3.20;;
65996;SDS011;52765;52.258;21.052;2022-07-06T06:42:17;7.43;;;4.00;;
65996;SDS011;52765;52.258;21.052;2022-07-06T06:44:42;5.90;;;4.30;;
65996;SDS011;52765;52.258;21.052;2022-07-06T06:47:08;6.70;;;4.85;;
65996;SDS011;52765;52.258;21.052;2022-07-06T06:49:33;13.45;;;6.00;;
65996;SDS011;52765;52.258;21.052;2022-07-06T06:51:59;12.52;;;5.90;;
65996;SDS011;52765;52.258;21.052;2022-07-06T06:54:24;5.72;;;4.57;;
65996;SDS011;52765;52.258;21.052;2022-07-06T06:56:50;10.05;;;5.72;;
65996;SDS011;52765;52.258;21.052;2022-07-06T06:59:15;10.07;;;5.70;;
65996;SDS011;52765;52.258;21.052;2022-07-06T07:01:41;6.72;;;4.85;;
65996;SDS011;52765;52.258;21.052;2022-07-06T07:04:06;7.15;;;5.03;;
65996;SDS011;52765;52.258;21.052;2022-07-06T07:06:32;8.63;;;5.28;;
65996;SDS011;52765;52.258;21.052;2022-07-06T07:08:58;5.93;;;5.00;;
65996;SDS011;52765;52.258;21.052;2022-07-06T07:11:23;12.80;;;6.10;;
65996;SDS011;52765;52.258;21.052;2022-07-06T07:13:49;8.00;;;6.03;;
65996;SDS011;52765;52.258;21.052;2022-07-06T07:16:15;5.95;;;4.63;;
65996;SDS011;52765;52.258;21.052;2022-07-06T07:18:40;9.73;;;5.85;;
65996;SDS011;52765;52.258;21.052;2022-07-06T07:21:06;11.23;;;5.68;;
65996;SDS011;52765;52.258;21.052;2022-07-06T07:23:31;10.70;;;5.65;;
65996;SDS011;52765;52.258;21.052;2022-07-06T07:25:57;8.13;;;5.15;;
65996;SDS011;52765;52.258;21.052;2022-07-06T07:28:22;7.68;;;6.05;;
65996;SDS011;52765;52.258;21.052;2022-07-06T07:30:48;7.97;;;6.00;;
65996;SDS011;52765;52.258;21.052;2022-07-06T07:33:14;9.00;;;5.45;;
65996;SDS011;52765;52.258;21.052;2022-07-06T07:35:39;11.25;;;6.35;;
65996;SDS011;52765;52.258;21.052;2022-07-06T07:38:05;9.60;;;5.90;;
65996;SDS011;52765;52.258;21.052;2022-07-06T07:40:30;10.90;;;5.97;;
65996;SDS011;52765;52.258;21.052;2022-07-06T07:42:56;8.05;;;5.88;;
65996;SDS011;52765;52.258;21.052;2022-07-06T07:45:21;12.40;;;5.45;;
65996;SDS011;52765;52.258;21.052;2022-07-06T07:47:47;7.35;;;5.32;;
65996;SDS011;52765;52.258;21.052;2022-07-06T07:50:12;7.00;;;5.15;;
65996;SDS011;52765;52.258;21.052;2022-07-06T07:52:38;5.78;;;4.70;;
65996;SDS011;52765;52.258;21.052;2022-07-06T07:55:04;6.28;;;4.05;;
65996;SDS011;52765;52.258;21.052;2022-07-06T07:57:32;5.80;;;4.22;;
65996;SDS011;52765;52.258;21.052;2022-07-06T07:59:58;3.88;;;3.15;;
65996;SDS011;52765;52.258;21.052;2022-07-06T08:02:23;5.35;;;2.40;;
65996;SDS011;52765;52.258;21.052;2022-07-06T08:04:49;4.30;;;2.80;;
65996;SDS011;52765;52.258;21.052;2022-07-06T08:07:16;7.32;;;3.15;;
65996;SDS011;52765;52.258;21.052;2022-07-06T08:09:42;4.00;;;2.05;;
65996;SDS011;52765;52.258;21.052;2022-07-06T08:12:07;1.65;;;1.55;;
65996;SDS011;52765;52.258;21.052;2022-07-06T08:14:34;5.43;;;2.25;;
65996;SDS011;52765;52.258;21.052;2022-07-06T08:16:59;3.53;;;2.00;;
65996;SDS011;52765;52.258;21.052;2022-07-06T08:19:25;3.53;;;1.98;;
65996;SDS011;52765;52.258;21.052;2022-07-06T08:21:51;5.38;;;2.25;;
65996;SDS011;52765;52.258;21.052;2022-07-06T08:24:16;5.40;;;2.75;;
65996;SDS011;52765;52.258;21.052;2022-07-06T08:26:42;1.77;;;1.50;;
65996;SDS011;52765;52.258;21.052;2022-07-06T08:29:08;6.90;;;1.88;;
65996;SDS011;52765;52.258;21.052;2022-07-06T08:31:33;4.03;;;2.05;;
65996;SDS011;52765;52.258;21.052;2022-07-06T08:33:59;2.70;;;1.63;;
65996;SDS011;52765;52.258;21.052;2022-07-06T08:36:25;5.32;;;1.70;;
65996;SDS011;52765;52.258;21.052;2022-07-06T08:38:51;2.35;;;1.45;;
65996;SDS011;52765;52.258;21.052;2022-07-06T08:41:17;2.88;;;1.55;;
65996;SDS011;52765;52.258;21.052;2022-07-06T08:43:46;6.10;;;1.58;;
65996;SDS011;52765;52.258;21.052;2022-07-06T08:46:12;6.28;;;1.98;;
65996;SDS011;52765;52.258;21.052;2022-07-06T08:48:40;4.60;;;1.55;;
65996;SDS011;52765;52.258;21.052;2022-07-06T08:51:06;3.38;;;1.60;;
65996;SDS011;52765;52.258;21.052;2022-07-06T08:53:32;3.00;;;1.60;;
65996;SDS011;52765;52.258;21.052;2022-07-06T08:56:01;3.28;;;1.45;;
65996;SDS011;52765;52.258;21.052;2022-07-06T08:58:27;5.45;;;1.42;;
65996;SDS011;52765;52.258;21.052;2022-07-06T09:00:54;5.15;;;1.60;;
65996;SDS011;52765;52.258;21.052;2022-07-06T09:03:20;8.20;;;1.75;;
65996;SDS011;52765;52.258;21.052;2022-07-06T09:05:46;3.92;;;1.20;;
65996;SDS011;52765;52.258;21.052;2022-07-06T09:08:13;2.58;;;1.00;;
65996;SDS011;52765;52.258;21.052;2022-07-06T09:10:43;3.28;;;1.02;;
65996;SDS011;52765;52.258;21.052;2022-07-06T09:13:08;6.07;;;1.00;;
65996;SDS011;52765;52.258;21.052;2022-07-06T09:15:34;2.30;;;1.00;;
65996;SDS011;52765;52.258;21.052;2022-07-06T09:18:04;2.20;;;0.82;;
65996;SDS011;52765;52.258;21.052;2022-07-06T09:20:31;1.17;;;0.80;;
65996;SDS011;52765;52.258;21.052;2022-07-06T09:22:58;3.97;;;1.00;;
65996;SDS011;52765;52.258;21.052;2022-07-06T09:25:25;1.40;;;0.65;;
65996;SDS011;52765;52.258;21.052;2022-07-06T09:27:53;5.03;;;1.15;;
65996;SDS011;52765;52.258;21.052;2022-07-06T09:30:22;3.97;;;0.95;;
65996;SDS011;52765;52.258;21.052;2022-07-06T09:32:50;3.55;;;1.02;;
65996;SDS011;52765;52.258;21.052;2022-07-06T09:35:23;2.47;;;1.10;;
65996;SDS011;52765;52.258;21.052;2022-07-06T09:38:05;1.25;;;0.60;;
65996;SDS011;52765;52.258;21.052;2022-07-06T09:40:40;1.63;;;0.82;;
65996;SDS011;52765;52.258;21.052;2022-07-06T09:43:17;4.20;;;1.00;;
65996;SDS011;52765;52.258;21.052;2022-07-06T09:45:47;4.32;;;1.42;;
65996;SDS011;52765;52.258;21.052;2022-07-06T09:48:15;1.38;;;0.82;;
65996;SDS011;52765;52.258;21.052;2022-07-06T09:51:00;7.30;;;0.98;;
65996;SDS011;52765;52.258;21.052;2022-07-06T09:53:31;2.97;;;0.73;;
65996;SDS011;52765;52.258;21.052;2022-07-06T09:56:00;2.00;;;0.80;;
65996;SDS011;52765;52.258;21.052;2022-07-06T09:58:27;1.95;;;0.80;;
65996;SDS011;52765;52.258;21.052;2022-07-06T10:00:53;5.20;;;1.13;;
65996;SDS011;52765;52.258;21.052;2022-07-06T10:03:18;2.13;;;0.55;;
65996;SDS011;52765;52.258;21.052;2022-07-06T10:05:45;2.40;;;0.63;;
65996;SDS011;52765;52.258;21.052;2022-07-06T10:08:12;4.00;;;0.70;;
65996;SDS011;52765;52.258;21.052;2022-07-06T10:10:39;4.00;;;0.85;;
65996;SDS011;52765;52.258;21.052;2022-07-06T10:13:06;1.70;;;0.80;;
65996;SDS011;52765;52.258;21.052;2022-07-06T10:15:34;3.60;;;0.70;;
65996;SDS011;52765;52.258;21.052;2022-07-06T10:18:06;4.90;;;1.30;;
65996;SDS011;52765;52.258;21.052;2022-07-06T10:20:34;7.80;;;0.88;;
65996;SDS011;52765;52.258;21.052;2022-07-06T10:23:06;3.55;;;0.70;;
65996;SDS011;52765;52.258;21.052;2022-07-06T10:25:34;2.63;;;0.93;;
65996;SDS011;52765;52.258;21.052;2022-07-06T10:28:02;2.42;;;0.80;;
65996;SDS011;52765;52.258;21.052;2022-07-06T10:30:28;2.55;;;0.75;;
65996;SDS011;52765;52.258;21.052;2022-07-06T10:32:55;3.92;;;1.52;;
65996;SDS011;52765;52.258;21.052;2022-07-06T10:35:23;3.95;;;1.23;;
65996;SDS011;52765;52.258;21.052;2022-07-06T10:38:05;1.42;;;0.95;;
65996;SDS011;52765;52.258;21.052;2022-07-06T10:40:34;4.30;;;0.80;;
65996;SDS011;52765;52.258;21.052;2022-07-06T10:43:20;1.60;;;0.77;;
65996;SDS011;52765;52.258;21.052;2022-07-06T10:45:50;2.72;;;0.73;;
65996;SDS011;52765;52.258;21.052;2022-07-06T10:48:16;4.88;;;1.20;;
65996;SDS011;52765;52.258;21.052;2022-07-06T10:50:47;1.45;;;0.60;;
65996;SDS011;52765;52.258;21.052;2022-07-06T10:53:21;2.90;;;1.08;;
65996;SDS011;52765;52.258;21.052;2022-07-06T10:55:47;3.85;;;0.80;;
65996;SDS011;52765;52.258;21.052;2022-07-06T11:01:11;10.82;;;1.15;;
65996;SDS011;52765;52.258;21.052;2022-07-06T11:11:22;2.90;;;0.73;;
65996;SDS011;52765;52.258;21.052;2022-07-06T11:13:54;1.27;;;0.93;;
65996;SDS011;52765;52.258;21.052;2022-07-06T11:16:29;7.93;;;1.00;;
65996;SDS011;52765;52.258;21.052;2022-07-06T11:21:50;1.80;;;0.65;;
65996;SDS011;52765;52.258;21.052;2022-07-06T11:24:20;3.63;;;0.95;;
65996;SDS011;52765;52.258;21.052;2022-07-06T11:26:50;6.53;;;0.90;;
65996;SDS011;52765;52.258;21.052;2022-07-06T11:29:17;2.95;;;0.60;;
65996;SDS011;52765;52.258;21.052;2022-07-06T11:31:46;3.03;;;0.60;;
65996;SDS011;52765;52.258;21.052;2022-07-06T11:34:13;2.25;;;0.73;;
65996;SDS011;52765;52.258;21.052;2022-07-06T11:36:47;1.50;;;0.68;;
65996;SDS011;52765;52.258;21.052;2022-07-06T11:39:13;2.75;;;0.60;;
65996;SDS011;52765;52.258;21.052;2022-07-06T11:41:39;1.77;;;0.70;;
65996;SDS011;52765;52.258;21.052;2022-07-06T11:44:05;3.35;;;0.80;;
65996;SDS011;52765;52.258;21.052;2022-07-06T11:46:34;6.88;;;0.98;;
65996;SDS011;52765;52.258;21.052;2022-07-06T11:51:28;2.42;;;0.47;;
65996;SDS011;52765;52.258;21.052;2022-07-06T11:53:56;1.70;;;0.60;;
65996;SDS011;52765;52.258;21.052;2022-07-06T11:56:25;2.38;;;0.63;;
65996;SDS011;52765;52.258;21.052;2022-07-06T11:58:53;2.95;;;1.02;;
65996;SDS011;52765;52.258;21.052;2022-07-06T12:01:21;4.32;;;1.10;;
65996;SDS011;52765;52.258;21.052;2022-07-06T12:03:51;2.70;;;0.70;;
65996;SDS011;52765;52.258;21.052;2022-07-06T12:06:20;5.78;;;0.88;;
65996;SDS011;52765;52.258;21.052;2022-07-06T12:08:54;6.00;;;1.02;;
65996;SDS011;52765;52.258;21.052;2022-07-06T12:13:47;3.15;;;0.77;;
65996;SDS011;52765;52.258;21.052;2022-07-06T12:16:13;2.17;;;0.60;;
65996;SDS011;52765;52.258;21.052;2022-07-06T12:18:43;1.75;;;0.73;;
65996;SDS011;52765;52.258;21.052;2022-07-06T12:21:11;2.85;;;0.98;;
65996;SDS011;52765;52.258;21.052;2022-07-06T12:23:43;4.85;;;0.70;;
65996;SDS011;52765;52.258;21.052;2022-07-06T12:26:11;2.10;;;0.70;;
65996;SDS011;52765;52.258;21.052;2022-07-06T12:28:38;4.25;;;0.63;;
65996;SDS011;52765;52.258;21.052;2022-07-06T12:31:04;0.77;;;0.43;;
65996;SDS011;52765;52.258;21.052;2022-07-06T12:33:30;1.75;;;0.60;;
65996;SDS011;52765;52.258;21.052;2022-07-06T12:35:55;2.95;;;0.80;;
65996;SDS011;52765;52.258;21.052;2022-07-06T12:38:24;2.50;;;0.60;;
65996;SDS011;52765;52.258;21.052;2022-07-06T12:40:50;3.03;;;0.70;;
65996;SDS011;52765;52.258;21.052;2022-07-06T12:48:54;2.20;;;0.63;;
65996;SDS011;52765;52.258;21.052;2022-07-06T12:51:20;1.10;;;0.70;;
65996;SDS011;52765;52.258;21.052;2022-07-06T12:53:47;1.73;;;0.60;;
65996;SDS011;52765;52.258;21.052;2022-07-06T12:56:13;1.67;;;0.70;;
65996;SDS011;52765;52.258;21.052;2022-07-06T12:59:02;3.35;;;1.00;;
65996;SDS011;52765;52.258;21.052;2022-07-06T13:01:26;6.75;;;0.77;;
65996;SDS011;52765;52.258;21.052;2022-07-06T13:03:56;1.38;;;0.65;;
65996;SDS011;52765;52.258;21.052;2022-07-06T13:06:29;1.77;;;0.70;;
65996;SDS011;52765;52.258;21.052;2022-07-06T13:08:56;3.85;;;0.73;;
65996;SDS011;52765;52.258;21.052;2022-07-06T13:11:22;5.50;;;0.82;;
65996;SDS011;52765;52.258;21.052;2022-07-06T13:13:47;3.20;;;0.90;;
65996;SDS011;52765;52.258;21.052;2022-07-06T13:16:16;1.83;;;0.70;;
65996;SDS011;52765;52.258;21.052;2022-07-06T13:19:22;3.13;;;0.65;;
65996;SDS011;52765;52.258;21.052;2022-07-06T13:21:47;2.17;;;0.60;;
65996;SDS011;52765;52.258;21.052;2022-07-06T13:24:13;3.50;;;1.10;;
65996;SDS011;52765;52.258;21.052;2022-07-06T13:26:40;1.45;;;0.70;;
65996;SDS011;52765;52.258;21.052;2022-07-06T13:29:05;4.82;;;0.70;;
65996;SDS011;52765;52.258;21.052;2022-07-06T13:31:31;2.08;;;0.70;;
65996;SDS011;52765;52.258;21.052;2022-07-06T13:33:58;1.98;;;0.95;;
65996;SDS011;52765;52.258;21.052;2022-07-06T13:36:26;1.48;;;0.60;;
65996;SDS011;52765;52.258;21.052;2022-07-06T13:38:52;3.28;;;0.85;;
65996;SDS011;52765;52.258;21.052;2022-07-06T13:41:17;1.38;;;0.63;;
65996;SDS011;52765;52.258;21.052;2022-07-06T13:43:43;2.47;;;0.75;;
65996;SDS011;52765;52.258;21.052;2022-07-06T13:46:09;5.47;;;1.08;;
65996;SDS011;52765;52.258;21.052;2022-07-06T13:48:37;2.88;;;0.75;;
65996;SDS011;52765;52.258;21.052;2022-07-06T13:51:10;2.03;;;0.50;;
65996;SDS011;52765;52.258;21.052;2022-07-06T13:53:36;4.13;;;0.77;;
65996;SDS011;52765;52.258;21.052;2022-07-06T13:56:02;2.42;;;0.90;;
65996;SDS011;52765;52.258;21.052;2022-07-06T13:58:30;5.72;;;2.67;;
65996;SDS011;52765;52.258;21.052;2022-07-06T14:00:56;1.83;;;0.80;;
65996;SDS011;52765;52.258;21.052;2022-07-06T14:03:24;3.28;;;0.75;;
65996;SDS011;52765;52.258;21.052;2022-07-06T14:05:54;3.25;;;0.70;;
65996;SDS011;52765;52.258;21.052;2022-07-06T14:08:24;3.60;;;0.70;;
65996;SDS011;52765;52.258;21.052;2022-07-06T14:10:51;1.88;;;0.60;;
65996;SDS011;52765;52.258;21.052;2022-07-06T14:13:16;3.40;;;0.85;;
65996;SDS011;52765;52.258;21.052;2022-07-06T14:15:42;1.70;;;0.77;;
65996;SDS011;52765;52.258;21.052;2022-07-06T14:18:27;3.20;;;0.88;;
65996;SDS011;52765;52.258;21.052;2022-07-06T14:20:53;4.80;;;0.82;;
65996;SDS011;52765;52.258;21.052;2022-07-06T14:23:19;3.67;;;0.75;;
65996;SDS011;52765;52.258;21.052;2022-07-06T14:25:46;4.93;;;1.00;;
65996;SDS011;52765;52.258;21.052;2022-07-06T14:28:12;3.33;;;0.70;;
65996;SDS011;52765;52.258;21.052;2022-07-06T14:30:39;6.38;;;0.98;;
65996;SDS011;52765;52.258;21.052;2022-07-06T14:33:06;1.45;;;0.60;;
65996;SDS011;52765;52.258;21.052;2022-07-06T14:35:34;1.65;;;0.70;;
65996;SDS011;52765;52.258;21.052;2022-07-06T14:38:00;3.38;;;0.65;;
65996;SDS011;52765;52.258;21.052;2022-07-06T14:40:26;3.45;;;0.80;;
65996;SDS011;52765;52.258;21.052;2022-07-06T14:42:52;3.13;;;0.80;;
65996;SDS011;52765;52.258;21.052;2022-07-06T14:45:17;4.72;;;0.93;;
65996;SDS011;52765;52.258;21.052;2022-07-06T14:47:43;4.57;;;1.20;;
65996;SDS011;52765;52.258;21.052;2022-07-06T14:50:11;2.60;;;1.10;;
65996;SDS011;52765;52.258;21.052;2022-07-06T14:52:37;5.07;;;1.10;;
65996;SDS011;52765;52.258;21.052;2022-07-06T14:55:03;3.67;;;1.02;;
65996;SDS011;52765;52.258;21.052;2022-07-06T14:57:29;1.77;;;1.10;;